createdAt,value
2019-03-21T00:02:16.916Z,5.83
2019-03-21T00:04:48.434Z,5.80
2019-03-21T00:07:18.115Z,5.69
2019-03-21T00:10:10.313Z,5.62
2019-03-21T00:12:39.675Z,5.68
2019-03-21T00:15:17.986Z,5.56
2019-03-21T00:17:50.485Z,5.55
2019-03-21T00:20:19.802Z,5.58
2019-03-21T00:22:49.124Z,5.62
2019-03-21T00:25:24.641Z,5.46
2019-03-21T00:27:54.002Z,5.46
2019-03-21T00:30:25.161Z,5.36
2019-03-21T00:32:55.891Z,5.47
2019-03-21T00:35:25.380Z,5.59
2019-03-21T00:37:54.679Z,5.59
2019-03-21T00:40:36.113Z,5.34
2019-03-21T00:43:08.247Z,5.44
2019-03-21T00:45:37.648Z,5.37
2019-03-21T00:48:10.186Z,5.56
2019-03-21T00:50:39.899Z,5.54
2019-03-21T00:53:09.213Z,5.56
2019-03-21T00:55:41.741Z,5.48
2019-03-21T00:58:11.096Z,5.54
2019-03-21T01:00:43.468Z,5.49
2019-03-21T01:03:13.910Z,5.35
2019-03-21T01:05:44.061Z,5.17
2019-03-21T01:08:13.445Z,5.35
2019-03-21T01:10:42.725Z,4.91
2019-03-21T01:13:12.048Z,4.80
2019-03-21T01:15:42.885Z,5.03
2019-03-21T01:18:12.191Z,4.92
2019-03-21T01:20:41.498Z,5.00
2019-03-21T01:23:10.796Z,4.93
2019-03-21T01:25:43.219Z,4.88
2019-03-21T01:28:12.536Z,5.18
2019-03-21T01:30:41.824Z,5.02
2019-03-21T01:33:11.188Z,5.26
2019-03-21T01:35:41.336Z,5.29
2019-03-21T01:38:10.649Z,5.12
2019-03-21T01:40:49.781Z,4.94
2019-03-21T01:43:20.339Z,4.78
2019-03-21T01:45:49.819Z,4.82
2019-03-21T01:48:19.139Z,4.80
2019-03-21T01:50:48.419Z,4.78
2019-03-21T01:53:18.156Z,4.76
2019-03-21T01:55:47.632Z,4.68
2019-03-21T01:58:16.934Z,4.76
2019-03-21T02:00:52.211Z,4.69
2019-03-21T02:03:21.521Z,4.63
2019-03-21T02:05:50.807Z,4.67
2019-03-21T02:08:20.119Z,4.70
2019-03-21T02:10:49.700Z,4.55
2019-03-21T02:13:19.027Z,4.50
2019-03-21T02:15:50.792Z,4.58
2019-03-21T02:18:19.549Z,4.44
2019-03-21T02:20:48.851Z,4.42
2019-03-21T02:23:18.543Z,4.42
2019-03-21T02:25:47.862Z,4.35
2019-03-21T02:28:17.189Z,4.37
2019-03-21T02:30:53.768Z,4.61
2019-03-21T02:33:34.193Z,4.52
2019-03-21T02:36:06.564Z,4.35
2019-03-21T02:38:35.883Z,4.38
2019-03-21T02:41:08.280Z,4.38
2019-03-21T02:43:37.839Z,4.40
2019-03-21T02:46:07.126Z,4.43
2019-03-21T02:48:36.545Z,4.32
2019-03-21T02:51:07.694Z,4.34
2019-03-21T02:53:37.265Z,4.37
2019-03-21T02:56:09.948Z,4.23
2019-03-21T02:58:39.266Z,4.15
2019-03-21T03:01:08.553Z,4.31
2019-03-21T03:03:37.867Z,4.33
2019-03-21T03:06:07.382Z,4.33
2019-03-21T03:08:36.692Z,4.33
2019-03-21T03:11:12.116Z,4.35
2019-03-21T03:13:43.833Z,4.51
2019-03-21T03:16:13.429Z,4.32
2019-03-21T03:18:42.757Z,4.30
2019-03-21T03:21:12.062Z,4.07
2019-03-21T03:23:41.341Z,4.20
2019-03-21T03:26:10.752Z,4.23
2019-03-21T03:28:42.932Z,4.17
2019-03-21T03:31:12.228Z,4.20
2019-03-21T03:33:41.555Z,4.00
2019-03-21T03:36:12.284Z,3.90
2019-03-21T03:38:41.590Z,3.90
2019-03-21T03:41:13.519Z,3.89
2019-03-21T03:43:42.927Z,3.85
2019-03-21T03:46:12.230Z,3.92
2019-03-21T03:48:41.551Z,3.89
2019-03-21T03:51:10.856Z,3.97
2019-03-21T03:53:42.369Z,3.97
2019-03-21T03:56:11.292Z,3.85
2019-03-21T03:58:47.361Z,3.81
2019-03-21T04:01:16.935Z,3.81
2019-03-21T04:03:46.580Z,3.75
2019-03-21T04:06:15.897Z,3.67
2019-03-21T04:08:45.687Z,3.66
2019-03-21T04:11:15.650Z,3.75
2019-03-21T04:13:44.968Z,3.73
2019-03-21T04:16:14.474Z,3.66
2019-03-21T04:18:43.880Z,3.73
2019-03-21T04:21:16.248Z,3.69
2019-03-21T04:23:46.075Z,3.64
2019-03-21T04:26:23.882Z,3.61
2019-03-21T04:28:53.259Z,3.65
2019-03-21T04:31:22.573Z,3.72
2019-03-21T04:33:55.020Z,3.62
2019-03-21T04:36:24.308Z,3.56
2019-03-21T04:38:53.631Z,3.62
2019-03-21T04:41:23.002Z,3.67
2019-03-21T04:43:52.328Z,3.74
2019-03-21T04:46:21.643Z,3.59
2019-03-21T04:48:50.964Z,3.86
2019-03-21T04:51:20.404Z,4.00
2019-03-21T04:53:49.714Z,3.94
2019-03-21T04:56:19.036Z,3.76
2019-03-21T04:58:48.356Z,3.60
2019-03-21T05:01:17.686Z,3.59
2019-03-21T05:03:46.983Z,3.58
2019-03-21T05:06:16.718Z,3.65
2019-03-21T05:08:46.028Z,3.54
2019-03-21T05:11:15.770Z,3.55
2019-03-21T05:13:45.117Z,3.77
2019-03-21T05:16:15.207Z,3.53
2019-03-21T05:18:50.599Z,3.50
2019-03-21T05:21:23.127Z,3.68
2019-03-21T05:23:52.419Z,3.60
2019-03-21T05:26:21.720Z,3.52
2019-03-21T05:28:51.197Z,3.65
2019-03-21T05:31:35.188Z,3.74
2019-03-21T05:34:04.770Z,3.64
2019-03-21T05:36:34.063Z,3.68
2019-03-21T05:39:05.169Z,3.58
2019-03-21T05:41:34.470Z,3.56
2019-03-21T05:44:06.804Z,3.60
2019-03-21T05:46:36.075Z,3.61
2019-03-21T05:49:05.443Z,3.43
2019-03-21T05:51:34.744Z,3.51
2019-03-21T05:54:04.232Z,3.81
2019-03-21T05:56:33.511Z,3.90
2019-03-21T05:59:03.076Z,3.85
2019-03-21T06:01:32.421Z,3.71
2019-03-21T06:04:01.749Z,4.04
2019-03-21T06:06:58.334Z,3.88
2019-03-21T06:09:27.936Z,3.96
2019-03-21T06:12:02.712Z,3.91
2019-03-21T06:14:43.608Z,4.02
2019-03-21T06:17:12.916Z,4.10
2019-03-21T06:19:51.363Z,4.08
2019-03-21T06:22:38.352Z,4.50
2019-03-21T06:25:34.676Z,4.61
2019-03-21T06:28:04.062Z,4.78
2019-03-21T06:30:33.353Z,5.37
2019-03-21T06:33:02.892Z,5.37
2019-03-21T06:35:32.225Z,5.60
2019-03-21T06:38:02.132Z,5.72
2019-03-21T06:40:31.444Z,5.87
2019-03-21T06:43:00.740Z,5.98
2019-03-21T06:45:30.453Z,6.34
2019-03-21T06:47:59.815Z,6.75
2019-03-21T06:50:29.128Z,6.82
2019-03-21T06:52:58.431Z,6.76
2019-03-21T06:55:27.735Z,7.33
2019-03-21T06:57:57.308Z,7.83
2019-03-21T07:00:26.665Z,7.67
2019-03-21T07:02:55.985Z,7.50
2019-03-21T07:05:26.846Z,7.61
2019-03-21T07:07:56.699Z,7.68
2019-03-21T07:10:26.178Z,7.94
2019-03-21T07:12:55.499Z,8.07
2019-03-21T07:15:24.790Z,7.65
2019-03-21T07:17:54.380Z,7.65
2019-03-21T07:20:23.662Z,7.66
2019-03-21T07:22:52.981Z,8.10
2019-03-21T07:25:22.269Z,8.46
2019-03-21T07:27:51.587Z,9.50
2019-03-21T07:30:20.876Z,9.94
2019-03-21T07:32:50.183Z,10.61
2019-03-21T07:35:19.458Z,10.52
2019-03-21T07:37:49.064Z,10.19
2019-03-21T07:40:18.337Z,9.90
2019-03-21T07:42:47.715Z,9.91
2019-03-21T07:45:17.526Z,9.82
2019-03-21T07:47:47.075Z,10.65
2019-03-21T07:50:16.514Z,10.98
2019-03-21T07:52:45.908Z,11.33
2019-03-21T07:55:15.354Z,11.17
2019-03-21T07:57:44.999Z,11.81
2019-03-21T08:00:16.635Z,11.96
2019-03-21T08:02:45.916Z,11.98
2019-03-21T08:05:15.971Z,12.25
2019-03-21T08:07:45.270Z,12.40
2019-03-21T08:10:15.695Z,12.31
2019-03-21T08:12:45.017Z,12.39
2019-03-21T08:15:18.532Z,12.58
2019-03-21T08:17:47.847Z,13.33
2019-03-21T08:20:18.119Z,14.76
2019-03-21T08:22:47.430Z,15.79
2019-03-21T08:25:16.821Z,15.38
2019-03-21T08:27:46.116Z,15.90
2019-03-21T08:30:24.495Z,16.31
2019-03-21T08:32:53.794Z,16.49
2019-03-21T08:35:23.560Z,16.92
2019-03-21T08:37:53.027Z,17.24
2019-03-21T08:40:22.347Z,17.31
2019-03-21T08:42:51.656Z,16.83
2019-03-21T08:45:21.421Z,17.88
2019-03-21T08:47:50.777Z,18.45
2019-03-21T08:50:20.087Z,17.40
2019-03-21T08:52:49.366Z,17.89
2019-03-21T08:55:18.678Z,18.17
2019-03-21T08:57:47.990Z,17.89
2019-03-21T09:00:18.014Z,17.77
2019-03-21T09:02:47.338Z,16.45
2019-03-21T09:05:16.693Z,15.52
2019-03-21T09:07:46.301Z,15.30
2019-03-21T09:10:15.649Z,15.30
2019-03-21T09:12:44.973Z,15.89
2019-03-21T09:15:14.437Z,14.96
2019-03-21T09:17:43.942Z,15.49
2019-03-21T09:20:13.498Z,15.98
2019-03-21T09:22:43.080Z,16.18
2019-03-21T09:25:12.838Z,16.50
2019-03-21T09:27:42.519Z,14.51
2019-03-21T09:30:14.014Z,15.81
2019-03-21T09:32:43.326Z,16.11
2019-03-21T09:35:13.134Z,16.39
2019-03-21T09:37:42.445Z,16.83
2019-03-21T09:40:13.266Z,17.89
2019-03-21T09:42:42.644Z,18.85
2019-03-21T09:45:12.283Z,18.97
2019-03-21T09:47:41.587Z,20.02
2019-03-21T09:50:12.977Z,20.37
2019-03-21T09:52:42.299Z,21.40
2019-03-21T09:55:11.663Z,20.65
2019-03-21T09:57:41.233Z,18.77
2019-03-21T10:00:11.498Z,19.02
2019-03-21T10:02:41.788Z,19.65
2019-03-21T10:05:11.153Z,19.80
2019-03-21T10:07:40.657Z,20.75
2019-03-21T10:10:12.989Z,22.50
2019-03-21T10:12:42.304Z,23.82
2019-03-21T10:15:11.597Z,23.85
2019-03-21T10:17:41.255Z,22.57
2019-03-21T10:20:10.649Z,23.10
2019-03-21T10:22:39.972Z,23.66
2019-03-21T10:25:09.751Z,22.74
2019-03-21T10:27:39.069Z,22.18
2019-03-21T10:30:09.519Z,21.46
2019-03-21T10:32:38.895Z,23.04
2019-03-21T10:35:08.273Z,23.07
2019-03-21T10:37:37.891Z,22.80
2019-03-21T10:40:08.082Z,21.64
2019-03-21T10:42:37.360Z,21.92
2019-03-21T10:45:07.728Z,21.68
2019-03-21T10:47:37.041Z,19.93
2019-03-21T10:50:06.954Z,20.65
2019-03-21T10:52:36.349Z,18.73
2019-03-21T10:55:06.707Z,18.35
2019-03-21T10:57:36.040Z,19.65
2019-03-21T11:00:07.666Z,20.90
2019-03-21T11:02:37.245Z,20.84
2019-03-21T11:05:07.285Z,21.09
2019-03-21T11:07:36.608Z,22.10
2019-03-21T11:10:07.736Z,21.49
2019-03-21T11:12:37.046Z,20.85
2019-03-21T11:15:07.192Z,22.83
2019-03-21T11:17:36.567Z,23.49
2019-03-21T11:20:07.065Z,22.15
2019-03-21T11:22:36.605Z,23.60
2019-03-21T11:25:07.272Z,23.82
2019-03-21T11:27:37.029Z,23.83
2019-03-21T11:30:15.997Z,25.54
2019-03-21T11:32:39.269Z,27.04
2019-03-21T11:35:08.646Z,26.39
2019-03-21T11:37:38.034Z,26.61
2019-03-21T11:40:07.963Z,24.65
2019-03-21T11:42:37.271Z,25.85
2019-03-21T11:45:09.727Z,23.15
2019-03-21T11:47:42.115Z,24.22
2019-03-21T11:50:10.109Z,22.34
2019-03-21T11:52:41.065Z,22.20
2019-03-21T11:55:11.520Z,23.70
2019-03-21T11:57:40.846Z,23.77
2019-03-21T12:00:13.707Z,24.48
2019-03-21T12:02:43.177Z,24.59
2019-03-21T12:05:12.754Z,24.61
2019-03-21T12:07:42.077Z,22.27
2019-03-21T12:10:13.539Z,23.74
2019-03-21T12:12:42.855Z,22.50
2019-03-21T12:15:12.497Z,22.32
2019-03-21T12:17:41.803Z,21.57
2019-03-21T12:20:14.340Z,22.44
2019-03-21T12:22:43.657Z,23.61
2019-03-21T12:25:13.375Z,24.84
2019-03-21T12:27:42.666Z,25.59
2019-03-21T12:30:17.908Z,26.32
2019-03-21T12:32:47.182Z,22.72
2019-03-21T12:35:16.479Z,22.91
2019-03-21T12:37:45.789Z,22.58
2019-03-21T12:40:15.067Z,24.63
2019-03-21T12:42:44.383Z,24.77
2019-03-21T12:45:14.143Z,26.21
2019-03-21T12:47:43.448Z,25.98
2019-03-21T12:50:12.830Z,25.12
2019-03-21T12:52:42.403Z,26.45
2019-03-21T12:55:11.937Z,25.55
2019-03-21T12:57:41.221Z,24.80
2019-03-21T13:00:17.941Z,24.44
2019-03-21T13:02:47.259Z,23.32
2019-03-21T13:05:28.550Z,21.56
2019-03-21T13:07:58.257Z,21.11
2019-03-21T13:10:27.570Z,20.30
2019-03-21T13:12:57.025Z,19.82
2019-03-21T13:15:30.152Z,19.50
2019-03-21T13:18:00.267Z,19.39
2019-03-21T13:20:28.751Z,18.92
2019-03-21T13:22:58.343Z,19.25
2019-03-21T13:25:27.654Z,19.16
2019-03-21T13:27:57.042Z,18.99
2019-03-21T13:30:26.483Z,19.02
2019-03-21T13:32:55.782Z,18.63
2019-03-21T13:35:32.637Z,18.95
2019-03-21T13:37:56.294Z,18.67
2019-03-21T13:40:25.760Z,19.35
2019-03-21T13:42:55.041Z,18.58
2019-03-21T13:45:24.406Z,18.52
2019-03-21T13:47:53.626Z,18.02
2019-03-21T13:50:22.941Z,17.77
2019-03-21T13:52:52.245Z,17.89
2019-03-21T13:55:21.535Z,17.76
2019-03-21T13:57:50.827Z,17.62
2019-03-21T14:00:22.191Z,18.26
2019-03-21T14:02:51.571Z,18.48
2019-03-21T14:05:20.996Z,18.48
2019-03-21T14:07:50.326Z,18.86
2019-03-21T14:10:19.945Z,18.84
2019-03-21T14:12:49.326Z,18.45
2019-03-21T14:15:19.158Z,18.03
2019-03-21T14:17:48.466Z,18.23
2019-03-21T14:20:18.021Z,18.22
2019-03-21T14:22:47.531Z,18.36
2019-03-21T14:25:16.970Z,18.23
2019-03-21T14:27:46.654Z,18.21
2019-03-21T14:30:19.040Z,18.23
2019-03-21T14:32:48.425Z,18.54
2019-03-21T14:35:18.286Z,18.68
2019-03-21T14:37:47.679Z,18.67
2019-03-21T14:40:18.104Z,18.67
2019-03-21T14:42:47.541Z,18.17
2019-03-21T14:45:17.744Z,18.45
2019-03-21T14:47:47.097Z,18.52
2019-03-21T14:50:19.465Z,17.48
2019-03-21T14:52:48.761Z,17.52
2019-03-21T14:55:18.265Z,17.89
2019-03-21T14:57:47.774Z,18.07
2019-03-21T15:00:19.165Z,18.08
2019-03-21T15:02:48.504Z,18.28
2019-03-21T15:05:17.972Z,18.40
2019-03-21T15:07:47.293Z,18.22
2019-03-21T15:10:18.114Z,18.32
2019-03-21T15:12:47.411Z,18.45
2019-03-21T15:15:17.064Z,18.33
2019-03-21T15:17:46.380Z,18.39
2019-03-21T15:20:17.597Z,18.43
2019-03-21T15:22:46.887Z,18.39
2019-03-21T15:25:16.643Z,17.89
2019-03-21T15:27:45.996Z,17.72
2019-03-21T15:30:20.044Z,17.93
2019-03-21T15:32:49.559Z,18.13
2019-03-21T15:35:20.253Z,17.81
2019-03-21T15:37:49.546Z,18.01
2019-03-21T15:40:18.900Z,17.99
2019-03-21T15:42:48.215Z,17.73
2019-03-21T15:45:23.596Z,17.95
2019-03-21T15:47:49.654Z,18.09
2019-03-21T15:50:31.225Z,17.44
2019-03-21T15:53:00.535Z,17.49
2019-03-21T15:55:29.931Z,17.24
2019-03-21T15:57:59.382Z,17.23
2019-03-21T16:00:42.721Z,17.24
2019-03-21T16:03:13.373Z,17.33
2019-03-21T16:05:43.191Z,17.50
2019-03-21T16:08:12.886Z,17.58
2019-03-21T16:10:42.314Z,17.66
2019-03-21T16:13:11.801Z,17.67
2019-03-21T16:15:41.202Z,17.26
2019-03-21T16:18:10.494Z,17.24
2019-03-21T16:20:39.869Z,17.00
2019-03-21T16:23:09.158Z,17.01
2019-03-21T16:25:38.472Z,17.26
2019-03-21T16:28:07.767Z,17.19
2019-03-21T16:30:37.098Z,17.09
2019-03-21T16:33:06.379Z,17.23
2019-03-21T16:35:35.693Z,17.11
2019-03-21T16:38:05.021Z,17.02
2019-03-21T16:40:34.312Z,16.99
2019-03-21T16:43:05.520Z,16.72
2019-03-21T16:45:35.075Z,16.66
2019-03-21T16:48:05.601Z,16.63
2019-03-21T16:50:34.900Z,16.55
2019-03-21T16:53:04.360Z,16.49
2019-03-21T16:55:33.719Z,16.69
2019-03-21T16:58:03.188Z,16.45
2019-03-21T17:00:32.885Z,16.47
2019-03-21T17:03:02.349Z,16.31
2019-03-21T17:05:31.752Z,16.23
2019-03-21T17:08:10.489Z,16.11
2019-03-21T17:10:32.287Z,16.14
2019-03-21T17:13:04.753Z,15.95
2019-03-21T17:15:33.002Z,15.88
2019-03-21T17:18:02.436Z,15.82
2019-03-21T17:20:31.849Z,15.85
2019-03-21T17:23:01.224Z,15.91
2019-03-21T17:25:31.577Z,15.95
2019-03-21T17:28:01.083Z,15.89
2019-03-21T17:30:30.856Z,15.83
2019-03-21T17:33:00.168Z,15.79
2019-03-21T17:35:29.690Z,15.76
2019-03-21T17:37:59.019Z,15.66
2019-03-21T17:40:28.309Z,15.82
2019-03-21T17:42:57.629Z,15.74
2019-03-21T17:45:26.991Z,15.48
2019-03-21T17:47:56.551Z,15.44
2019-03-21T17:50:25.843Z,15.15
2019-03-21T17:52:55.397Z,14.97
2019-03-21T17:55:24.848Z,14.98
2019-03-21T17:57:54.169Z,15.07
2019-03-21T18:00:35.077Z,14.86
2019-03-21T18:03:05.544Z,14.61
2019-03-21T18:05:34.867Z,14.39
2019-03-21T18:08:04.258Z,14.25
2019-03-21T18:10:36.544Z,14.12
2019-03-21T18:13:06.596Z,14.06
2019-03-21T18:15:36.128Z,14.01
2019-03-21T18:18:05.505Z,13.99
2019-03-21T18:20:34.887Z,13.73
2019-03-21T18:23:04.270Z,13.60
2019-03-21T18:25:33.597Z,13.55
2019-03-21T18:28:03.284Z,13.47
2019-03-21T18:30:32.582Z,13.34
2019-03-21T18:33:01.977Z,13.27
2019-03-21T18:35:31.302Z,13.23
2019-03-21T18:38:00.582Z,13.27
2019-03-21T18:40:29.898Z,13.04
2019-03-21T18:42:59.339Z,13.00
2019-03-21T18:45:28.651Z,12.93
2019-03-21T18:47:57.944Z,12.77
2019-03-21T18:50:27.407Z,12.72
2019-03-21T18:52:56.697Z,12.65
2019-03-21T18:55:26.605Z,12.54
2019-03-21T18:57:56.152Z,12.54
2019-03-21T19:00:25.792Z,12.57
2019-03-21T19:02:55.097Z,12.43
2019-03-21T19:05:24.383Z,12.29
2019-03-21T19:07:53.775Z,12.24
2019-03-21T19:10:23.474Z,12.04
2019-03-21T19:12:52.753Z,12.04
2019-03-21T19:15:22.096Z,11.91
2019-03-21T19:17:51.365Z,11.83
2019-03-21T19:20:21.300Z,11.81
2019-03-21T19:22:51.065Z,11.72
2019-03-21T19:25:20.810Z,11.75
2019-03-21T19:27:50.285Z,11.71
2019-03-21T19:30:21.625Z,11.91
2019-03-21T19:32:51.225Z,11.82
2019-03-21T19:35:20.645Z,11.74
2019-03-21T19:37:49.917Z,11.56
2019-03-21T19:40:20.552Z,11.46
2019-03-21T19:42:49.904Z,11.40
2019-03-21T19:45:20.019Z,11.42
2019-03-21T19:47:49.335Z,11.32
2019-03-21T19:50:22.690Z,11.40
2019-03-21T19:52:52.002Z,11.30
2019-03-21T19:55:30.631Z,11.30
2019-03-21T19:57:52.432Z,11.34
2019-03-21T20:00:23.589Z,11.20
2019-03-21T20:02:53.270Z,11.07
2019-03-21T20:05:23.017Z,10.95
2019-03-21T20:07:52.430Z,10.90
2019-03-21T20:10:22.617Z,10.90
2019-03-21T20:12:51.943Z,10.91
2019-03-21T20:15:21.409Z,10.90
2019-03-21T20:17:50.722Z,11.01
2019-03-21T20:20:20.085Z,11.08
2019-03-21T20:22:49.543Z,11.04
2019-03-21T20:25:19.009Z,11.07
2019-03-21T20:27:48.358Z,11.06
2019-03-21T20:30:21.772Z,10.81
2019-03-21T20:32:51.554Z,10.70
2019-03-21T20:35:20.860Z,10.64
2019-03-21T20:37:50.247Z,10.70
2019-03-21T20:40:20.224Z,10.57
2019-03-21T20:42:49.591Z,10.52
2019-03-21T20:45:20.575Z,10.51
2019-03-21T20:47:49.881Z,10.37
2019-03-21T20:50:19.519Z,10.45
2019-03-21T20:52:49.197Z,10.33
2019-03-21T20:55:18.797Z,10.22
2019-03-21T20:57:48.076Z,10.19
2019-03-21T21:00:22.982Z,10.04
2019-03-21T21:02:53.713Z,10.07
2019-03-21T21:05:23.578Z,10.12
2019-03-21T21:07:52.944Z,10.04
2019-03-21T21:10:22.334Z,10.05
2019-03-21T21:12:51.730Z,9.93
2019-03-21T21:15:21.048Z,9.92
2019-03-21T21:17:50.372Z,9.95
2019-03-21T21:20:20.030Z,9.78
2019-03-21T21:22:49.340Z,9.77
2019-03-21T21:25:18.670Z,9.71
2019-03-21T21:27:49.817Z,9.61
2019-03-21T21:30:20.729Z,9.45
2019-03-21T21:32:50.185Z,9.42
2019-03-21T21:35:19.550Z,9.52
2019-03-21T21:37:49.084Z,9.67
2019-03-21T21:40:18.899Z,9.51
2019-03-21T21:42:48.198Z,9.55
2019-03-21T21:45:18.396Z,9.43
2019-03-21T21:47:47.713Z,9.38
2019-03-21T21:50:18.177Z,9.26
2019-03-21T21:52:47.482Z,9.14
2019-03-21T21:55:16.947Z,9.15
2019-03-21T21:57:46.261Z,9.24
2019-03-21T22:00:22.954Z,9.25
2019-03-21T22:02:52.462Z,9.13
2019-03-21T22:05:21.830Z,9.23
2019-03-21T22:07:51.126Z,9.07
2019-03-21T22:10:20.412Z,9.07
2019-03-21T22:12:49.730Z,9.02
2019-03-21T22:15:19.351Z,8.83
2019-03-21T22:17:48.663Z,8.71
2019-03-21T22:20:18.437Z,8.74
2019-03-21T22:22:47.834Z,8.74
2019-03-21T22:25:17.151Z,8.82
2019-03-21T22:27:46.465Z,8.82
2019-03-21T22:30:18.318Z,8.76
2019-03-21T22:32:47.695Z,8.70
2019-03-21T22:35:16.989Z,8.72
2019-03-21T22:37:46.319Z,8.59
2019-03-21T22:40:20.637Z,8.60
2019-03-21T22:42:51.597Z,8.34
2019-03-21T22:45:20.878Z,8.27
2019-03-21T22:47:50.838Z,8.24
2019-03-21T22:50:20.526Z,8.29
2019-03-21T22:52:49.815Z,8.24
2019-03-21T22:55:19.136Z,8.30
2019-03-21T22:57:48.505Z,7.86
2019-03-21T23:00:22.145Z,8.26
2019-03-21T23:02:51.532Z,8.39
2019-03-21T23:05:21.607Z,8.41
2019-03-21T23:07:50.900Z,8.35
2019-03-21T23:10:20.216Z,8.33
2019-03-21T23:12:49.497Z,8.02
2019-03-21T23:15:18.950Z,7.81
2019-03-21T23:17:48.791Z,8.19
2019-03-21T23:20:18.872Z,8.19
2019-03-21T23:22:48.259Z,8.12
2019-03-21T23:25:17.605Z,8.21
2019-03-21T23:27:46.933Z,8.23
2019-03-21T23:30:18.384Z,8.07
2019-03-21T23:32:48.096Z,7.93
2019-03-21T23:35:17.483Z,7.86
2019-03-21T23:37:46.761Z,7.82
2019-03-21T23:40:16.830Z,7.79
2019-03-21T23:42:46.125Z,7.88
2019-03-21T23:45:16.071Z,7.95
2019-03-21T23:47:45.362Z,7.96
2019-03-21T23:50:16.106Z,8.05
2019-03-21T23:52:45.427Z,8.08
2019-03-21T23:55:15.255Z,7.90
2019-03-21T23:57:44.576Z,8.09
